createdAt,value
2023-01-19T00:00:41.138Z,46.29
2023-01-19T00:03:08.049Z,45.92
2023-01-19T00:05:36.120Z,46.33
2023-01-19T00:08:03.392Z,46.58
2023-01-19T00:10:30.284Z,46.53
2023-01-19T00:12:57.455Z,46.50
2023-01-19T00:15:24.673Z,46.85
2023-01-19T00:17:51.685Z,46.50
2023-01-19T00:20:18.682Z,47.21
2023-01-19T00:22:45.535Z,46.67
2023-01-19T00:25:12.346Z,47.05
2023-01-19T00:27:39.292Z,46.82
2023-01-19T00:30:06.845Z,47.17
2023-01-19T00:32:33.765Z,46.44
2023-01-19T00:35:00.723Z,46.99
2023-01-19T00:37:27.723Z,46.40
2023-01-19T00:39:54.537Z,46.47
2023-01-19T00:42:21.413Z,46.58
2023-01-19T00:44:48.172Z,46.97
2023-01-19T00:47:15.159Z,45.92
2023-01-19T00:49:42.246Z,46.43
2023-01-19T00:52:09.214Z,46.79
2023-01-19T00:54:36.098Z,46.88
2023-01-19T00:57:03.256Z,46.10
2023-01-19T00:59:30.109Z,45.76
2023-01-19T01:01:57.256Z,46.04
2023-01-19T01:04:24.164Z,46.27
2023-01-19T01:06:51.035Z,46.34
2023-01-19T01:09:17.888Z,45.49
2023-01-19T01:11:44.824Z,46.10
2023-01-19T01:14:12.778Z,46.21
2023-01-19T01:16:40.530Z,46.41
2023-01-19T01:19:07.586Z,46.48
2023-01-19T01:21:34.660Z,46.17
2023-01-19T01:24:02.121Z,46.25
2023-01-19T01:26:29.389Z,46.34
2023-01-19T01:28:56.266Z,45.82
2023-01-19T01:31:23.292Z,46.13
2023-01-19T01:33:50.157Z,46.55
2023-01-19T01:36:17.022Z,46.13
2023-01-19T01:38:43.838Z,45.83
2023-01-19T01:41:11.581Z,45.90
2023-01-19T01:43:49.809Z,46.11
2023-01-19T01:46:18.112Z,46.09
2023-01-19T01:48:50.228Z,46.26
2023-01-19T01:51:32.551Z,45.88
2023-01-19T01:54:36.745Z,45.85
2023-01-19T01:57:08.395Z,45.75
2023-01-19T01:59:39.900Z,45.62
2023-01-19T02:02:11.722Z,45.99
2023-01-19T02:04:43.245Z,46.61
2023-01-19T02:07:17.362Z,46.04
2023-01-19T02:09:44.645Z,45.84
2023-01-19T02:12:11.979Z,46.13
2023-01-19T02:14:39.177Z,46.09
2023-01-19T02:17:07.233Z,45.77
2023-01-19T02:19:41.077Z,46.40
2023-01-19T02:22:24.594Z,46.16
2023-01-19T02:24:52.490Z,45.60
2023-01-19T02:27:19.914Z,45.86
2023-01-19T02:29:46.967Z,46.03
2023-01-19T02:32:14.318Z,45.89
2023-01-19T02:34:41.338Z,46.76
2023-01-19T02:37:13.171Z,46.64
2023-01-19T02:39:47.503Z,46.05
2023-01-19T02:42:40.144Z,45.68
2023-01-19T02:45:08.084Z,46.81
2023-01-19T02:47:40.632Z,46.42
2023-01-19T02:50:36.167Z,46.58
2023-01-19T02:53:18.115Z,46.06
2023-01-19T02:55:53.822Z,46.38
2023-01-19T02:58:33.039Z,46.69
2023-01-19T03:01:16.673Z,46.35
2023-01-19T03:04:02.398Z,47.18
2023-01-19T03:06:53.295Z,46.18
2023-01-19T03:09:26.288Z,46.07
2023-01-19T03:12:12.557Z,45.87
2023-01-19T03:14:44.708Z,46.00
2023-01-19T03:17:15.187Z,46.12
2023-01-19T03:19:43.933Z,46.15
2023-01-19T03:22:29.937Z,45.81
2023-01-19T03:25:01.043Z,46.58
2023-01-19T03:27:38.580Z,45.97
2023-01-19T03:30:10.693Z,45.59
2023-01-19T03:32:42.689Z,46.18
2023-01-19T03:35:14.688Z,45.61
2023-01-19T03:37:45.074Z,45.22
2023-01-19T03:40:12.559Z,45.48
2023-01-19T03:42:40.949Z,44.80
2023-01-19T03:45:09.060Z,44.53
2023-01-19T03:47:36.705Z,44.78
2023-01-19T03:50:09.219Z,45.17
2023-01-19T03:52:36.203Z,45.43
2023-01-19T03:55:05.462Z,45.66
2023-01-19T03:57:32.745Z,45.05
2023-01-19T03:59:59.599Z,44.97
2023-01-19T04:02:26.557Z,45.32
2023-01-19T04:04:53.393Z,45.76
2023-01-19T04:07:20.366Z,44.50
2023-01-19T04:09:47.175Z,45.20
2023-01-19T04:12:14.123Z,45.21
2023-01-19T04:14:40.959Z,45.16
2023-01-19T04:17:08.039Z,45.25
2023-01-19T04:19:34.960Z,45.69
2023-01-19T04:22:01.922Z,45.94
2023-01-19T04:24:28.722Z,46.08
2023-01-19T04:26:55.670Z,45.08
2023-01-19T04:29:22.749Z,45.21
2023-01-19T04:31:49.675Z,45.82
2023-01-19T04:34:16.649Z,45.96
2023-01-19T04:36:43.596Z,46.37
2023-01-19T04:39:10.552Z,45.92
2023-01-19T04:41:37.519Z,47.02
2023-01-19T04:44:04.650Z,46.42
2023-01-19T04:46:31.572Z,47.00
2023-01-19T04:48:58.519Z,46.48
2023-01-19T04:51:25.417Z,47.29
2023-01-19T04:53:52.225Z,48.28
2023-01-19T04:56:19.241Z,47.53
2023-01-19T04:58:46.142Z,48.90
2023-01-19T05:01:13.245Z,48.85
2023-01-19T05:03:40.138Z,48.77
2023-01-19T05:06:07.464Z,49.53
2023-01-19T05:08:34.373Z,50.06
2023-01-19T05:11:01.325Z,50.86
2023-01-19T05:13:28.168Z,50.95
2023-01-19T05:15:55.261Z,50.79
2023-01-19T05:18:22.207Z,51.27
2023-01-19T05:20:49.137Z,52.53
2023-01-19T05:23:15.957Z,52.15
2023-01-19T05:25:43.408Z,52.88
2023-01-19T05:28:10.492Z,53.26
2023-01-19T05:30:37.459Z,53.73
2023-01-19T05:33:04.439Z,55.60
2023-01-19T05:35:36.135Z,55.84
2023-01-19T05:38:03.971Z,55.73
2023-01-19T05:40:30.991Z,55.95
2023-01-19T05:42:58.551Z,56.35
2023-01-19T05:45:25.679Z,56.59
2023-01-19T05:47:54.336Z,56.95
2023-01-19T05:50:21.202Z,57.10
2023-01-19T05:52:48.152Z,57.50
2023-01-19T05:55:15.584Z,57.72
2023-01-19T05:57:42.471Z,58.19
2023-01-19T06:00:10.039Z,57.53
2023-01-19T06:02:37.185Z,58.33
2023-01-19T06:05:04.644Z,59.13
2023-01-19T06:07:31.974Z,58.57
2023-01-19T06:09:58.996Z,58.88
2023-01-19T06:12:25.908Z,58.52
2023-01-19T06:14:52.717Z,59.50
2023-01-19T06:17:19.676Z,60.24
2023-01-19T06:19:46.506Z,59.69
2023-01-19T06:22:13.484Z,59.83
2023-01-19T06:24:40.361Z,60.93
2023-01-19T06:27:07.328Z,59.24
2023-01-19T06:29:34.252Z,59.66
2023-01-19T06:32:01.257Z,59.90
2023-01-19T06:34:28.054Z,58.98
2023-01-19T06:36:56.374Z,59.17
2023-01-19T06:39:23.474Z,58.31
2023-01-19T06:41:50.502Z,58.88
2023-01-19T06:44:17.345Z,58.14
2023-01-19T06:46:44.245Z,58.47
2023-01-19T06:49:11.018Z,59.81
2023-01-19T06:51:37.914Z,58.53
2023-01-19T06:54:04.759Z,58.63
2023-01-19T06:56:31.595Z,58.54
2023-01-19T06:58:58.427Z,59.09
2023-01-19T07:01:26.040Z,57.91
2023-01-19T07:03:52.865Z,59.67
2023-01-19T07:06:19.737Z,59.28
2023-01-19T07:08:46.825Z,58.44
2023-01-19T07:11:25.599Z,58.54
2023-01-19T07:13:58.822Z,58.28
2023-01-19T07:16:25.753Z,58.45
2023-01-19T07:18:52.909Z,58.75
2023-01-19T07:21:19.820Z,58.44
2023-01-19T07:23:51.613Z,57.56
2023-01-19T07:26:19.102Z,58.09
2023-01-19T07:28:47.424Z,57.97
2023-01-19T07:31:15.778Z,57.11
2023-01-19T07:33:43.452Z,57.61
2023-01-19T07:36:11.663Z,57.74
2023-01-19T07:38:39.081Z,57.48
2023-01-19T07:41:09.390Z,57.06
2023-01-19T07:43:36.720Z,56.57
2023-01-19T07:46:05.742Z,57.08
2023-01-19T07:48:32.745Z,56.64
2023-01-19T07:51:04.966Z,56.11
2023-01-19T07:53:32.191Z,56.47
2023-01-19T07:55:59.318Z,56.66
2023-01-19T07:58:26.584Z,56.65
2023-01-19T08:00:55.109Z,56.80
2023-01-19T08:03:22.280Z,55.95
2023-01-19T08:05:55.137Z,55.24
2023-01-19T08:08:23.083Z,55.63
2023-01-19T08:10:51.975Z,55.27
2023-01-19T08:13:19.341Z,55.32
2023-01-19T08:15:50.066Z,55.11
2023-01-19T08:18:17.493Z,55.30
2023-01-19T08:20:44.298Z,55.42
2023-01-19T08:23:11.329Z,55.48
2023-01-19T08:25:41.967Z,55.10
2023-01-19T08:28:09.801Z,54.99
2023-01-19T08:30:37.399Z,55.30
2023-01-19T08:33:04.828Z,55.77
2023-01-19T08:35:36.814Z,55.35
2023-01-19T08:38:05.916Z,55.12
2023-01-19T08:40:34.904Z,55.29
2023-01-19T08:43:04.865Z,55.57
2023-01-19T08:45:32.256Z,55.23
2023-01-19T08:47:59.714Z,54.86
2023-01-19T08:50:31.753Z,54.94
2023-01-19T08:53:00.693Z,54.65
2023-01-19T08:55:28.955Z,55.17
2023-01-19T08:57:57.749Z,54.50
2023-01-19T09:00:25.323Z,54.74
2023-01-19T09:02:52.290Z,55.63
2023-01-19T09:05:19.576Z,55.29
2023-01-19T09:07:47.228Z,55.24
2023-01-19T09:10:15.767Z,55.62
2023-01-19T09:12:43.549Z,55.73
2023-01-19T09:15:11.627Z,55.49
2023-01-19T09:17:38.782Z,55.38
2023-01-19T09:20:06.660Z,53.98
2023-01-19T09:22:33.657Z,53.92
2023-01-19T09:25:01.261Z,54.55
2023-01-19T09:27:28.276Z,53.53
2023-01-19T09:29:55.049Z,52.76
2023-01-19T09:32:22.515Z,53.17
2023-01-19T09:34:49.419Z,53.08
2023-01-19T09:37:16.349Z,52.98
2023-01-19T09:39:43.205Z,53.81
2023-01-19T09:42:42.698Z,53.30
2023-01-19T09:45:19.744Z,52.80
2023-01-19T09:47:49.327Z,53.06
2023-01-19T09:50:31.622Z,52.60
2023-01-19T09:53:14.068Z,52.54
2023-01-19T09:55:42.118Z,52.67
2023-01-19T09:58:15.250Z,52.79
2023-01-19T10:00:57.258Z,52.22
2023-01-19T10:03:24.368Z,52.37
2023-01-19T10:06:01.630Z,52.24
2023-01-19T10:09:06.791Z,52.80
2023-01-19T10:11:56.964Z,52.75
2023-01-19T10:14:42.426Z,52.02
2023-01-19T10:17:33.315Z,52.43
2023-01-19T10:20:02.834Z,51.83
2023-01-19T10:22:29.675Z,51.73
2023-01-19T10:25:01.500Z,51.70
2023-01-19T10:27:34.997Z,51.92
2023-01-19T10:30:02.239Z,51.66
2023-01-19T10:32:35.547Z,52.32
2023-01-19T10:35:17.915Z,51.43
2023-01-19T10:37:44.947Z,51.82
2023-01-19T10:40:11.761Z,51.95
2023-01-19T10:42:41.132Z,51.46
2023-01-19T10:45:19.163Z,52.03
2023-01-19T10:47:47.529Z,50.79
2023-01-19T10:50:36.793Z,51.87
2023-01-19T10:53:05.794Z,51.19
2023-01-19T10:55:35.961Z,51.94
2023-01-19T10:58:02.882Z,51.64
2023-01-19T11:00:35.473Z,52.33
2023-01-19T11:03:02.913Z,52.62
2023-01-19T11:05:33.053Z,52.68
2023-01-19T11:08:00.146Z,52.68
2023-01-19T11:10:29.779Z,52.89
2023-01-19T11:13:10.590Z,52.51
2023-01-19T11:15:53.758Z,53.00
2023-01-19T11:18:33.467Z,53.74
2023-01-19T11:21:04.881Z,53.64
2023-01-19T11:23:58.215Z,54.54
2023-01-19T11:26:27.969Z,55.10
2023-01-19T11:28:57.683Z,54.83
2023-01-19T11:31:27.785Z,55.05
2023-01-19T11:33:57.474Z,55.97
2023-01-19T11:36:35.795Z,56.73
2023-01-19T11:39:24.198Z,56.63
2023-01-19T11:41:55.239Z,56.92
2023-01-19T11:44:30.956Z,57.44
2023-01-19T11:47:01.308Z,56.40
2023-01-19T11:50:06.102Z,57.62
2023-01-19T11:52:43.210Z,57.32
2023-01-19T11:55:17.576Z,57.70
2023-01-19T11:57:52.830Z,56.84
2023-01-19T12:00:35.322Z,56.86
2023-01-19T12:03:08.551Z,57.38
2023-01-19T12:05:40.052Z,58.21
2023-01-19T12:08:15.222Z,58.83
2023-01-19T12:10:47.133Z,58.06
2023-01-19T12:13:27.598Z,58.75
2023-01-19T12:16:12.136Z,58.13
2023-01-19T12:18:44.924Z,57.98
2023-01-19T12:21:11.967Z,58.53
2023-01-19T12:23:56.204Z,58.76
2023-01-19T12:26:35.477Z,57.93
2023-01-19T12:29:14.224Z,58.41
2023-01-19T12:31:42.104Z,58.42
2023-01-19T12:34:24.086Z,58.75
2023-01-19T12:36:52.192Z,58.13
2023-01-19T12:39:18.929Z,58.14
2023-01-19T12:41:47.117Z,58.86
2023-01-19T12:44:13.908Z,58.87
2023-01-19T12:46:54.444Z,59.04
2023-01-19T12:49:52.602Z,58.71
2023-01-19T12:52:31.666Z,59.46
2023-01-19T12:55:13.486Z,58.45
2023-01-19T12:57:55.761Z,58.83
2023-01-19T13:00:22.618Z,58.98
2023-01-19T13:02:54.983Z,59.60
2023-01-19T13:05:26.127Z,59.22
2023-01-19T13:08:02.073Z,59.99
2023-01-19T13:11:00.184Z,59.83
2023-01-19T13:13:38.697Z,59.53
2023-01-19T13:16:21.250Z,60.30
2023-01-19T13:19:06.320Z,59.75
2023-01-19T13:21:44.697Z,59.16
2023-01-19T13:24:17.564Z,58.58
2023-01-19T13:26:50.703Z,59.96
2023-01-19T13:29:34.871Z,59.40
2023-01-19T13:32:05.161Z,59.23
2023-01-19T13:34:56.289Z,60.10
2023-01-19T13:37:30.577Z,59.48
2023-01-19T13:39:57.981Z,58.93
2023-01-19T13:42:37.347Z,59.27
2023-01-19T13:45:16.491Z,59.31
2023-01-19T13:47:46.819Z,59.99
2023-01-19T13:50:26.899Z,60.68
2023-01-19T13:52:54.287Z,61.29
2023-01-19T13:55:22.982Z,60.65
2023-01-19T13:57:51.461Z,61.16
2023-01-19T14:00:21.527Z,61.84
2023-01-19T14:02:53.154Z,61.48
2023-01-19T14:05:36.540Z,61.84
2023-01-19T14:08:08.235Z,62.00
2023-01-19T14:10:37.405Z,62.10
2023-01-19T14:13:19.804Z,63.08
2023-01-19T14:15:49.303Z,62.34
2023-01-19T14:18:18.941Z,63.50
2023-01-19T14:21:18.411Z,63.78
2023-01-19T14:24:08.959Z,62.71
2023-01-19T14:26:45.113Z,62.94
2023-01-19T14:29:36.809Z,63.65
2023-01-19T14:32:05.817Z,63.48
2023-01-19T14:34:41.676Z,64.14
2023-01-19T14:37:22.624Z,64.37
2023-01-19T14:40:09.239Z,64.20
2023-01-19T14:42:38.711Z,63.85
2023-01-19T14:45:15.705Z,64.29
2023-01-19T14:47:45.522Z,64.19
2023-01-19T14:50:24.098Z,65.19
2023-01-19T14:53:23.487Z,64.00
2023-01-19T14:56:01.583Z,64.62
2023-01-19T14:58:32.912Z,64.96
2023-01-19T15:01:00.769Z,65.67
2023-01-19T15:03:42.699Z,65.51
2023-01-19T15:06:19.339Z,66.41
2023-01-19T15:08:47.432Z,66.10
2023-01-19T15:11:35.358Z,66.13
2023-01-19T15:14:03.108Z,66.64
2023-01-19T15:16:33.159Z,66.54
2023-01-19T15:19:00.652Z,66.66
2023-01-19T15:21:27.615Z,66.55
2023-01-19T15:23:55.826Z,66.62
2023-01-19T15:26:26.308Z,66.74
2023-01-19T15:28:55.611Z,66.50
2023-01-19T15:31:26.334Z,67.43
2023-01-19T15:33:53.976Z,67.69
2023-01-19T15:36:22.386Z,68.05
2023-01-19T15:38:49.984Z,68.36
2023-01-19T15:41:26.879Z,68.73
2023-01-19T15:43:54.143Z,68.88
2023-01-19T15:46:21.904Z,69.02
2023-01-19T15:48:49.832Z,68.36
2023-01-19T15:51:19.920Z,69.97
2023-01-19T15:53:47.760Z,69.93
2023-01-19T15:56:19.757Z,69.34
2023-01-19T15:58:47.902Z,69.00
2023-01-19T16:01:17.474Z,68.73
2023-01-19T16:03:46.041Z,69.30
2023-01-19T16:06:13.635Z,68.66
2023-01-19T16:08:40.912Z,68.67
2023-01-19T16:11:11.902Z,67.95
2023-01-19T16:13:39.136Z,68.20
2023-01-19T16:16:08.966Z,68.68
2023-01-19T16:18:36.431Z,68.50
2023-01-19T16:21:03.489Z,68.47
2023-01-19T16:23:30.655Z,69.54
2023-01-19T16:26:03.736Z,69.51
2023-01-19T16:28:31.618Z,69.08
2023-01-19T16:30:58.625Z,69.10
2023-01-19T16:33:25.703Z,68.85
2023-01-19T16:35:53.841Z,68.62
2023-01-19T16:38:23.153Z,69.35
2023-01-19T16:40:50.358Z,68.95
2023-01-19T16:43:17.467Z,69.79
2023-01-19T16:46:02.095Z,69.97
2023-01-19T16:51:01.681Z,69.64
2023-01-19T16:53:32.125Z,69.16
2023-01-19T16:55:59.018Z,69.92
2023-01-19T16:58:25.911Z,68.84
2023-01-19T17:00:53.061Z,69.32
2023-01-19T17:03:21.168Z,68.70
2023-01-19T17:05:51.498Z,68.65
2023-01-19T17:08:19.866Z,68.89
2023-01-19T17:10:47.918Z,69.43
2023-01-19T17:13:14.988Z,69.02
2023-01-19T17:15:42.017Z,70.06
2023-01-19T17:18:09.025Z,69.41
2023-01-19T17:20:36.278Z,69.13
2023-01-19T17:23:04.644Z,68.69
2023-01-19T17:25:31.606Z,68.49
2023-01-19T17:27:59.472Z,68.82
2023-01-19T17:30:27.911Z,69.45
2023-01-19T17:32:54.901Z,69.56
2023-01-19T17:35:22.101Z,69.67
2023-01-19T17:37:52.377Z,70.11
2023-01-19T17:40:19.509Z,70.18
2023-01-19T17:42:46.438Z,69.74
2023-01-19T17:45:14.346Z,70.26
2023-01-19T17:47:41.343Z,70.35
2023-01-19T17:50:08.882Z,70.48
2023-01-19T17:52:37.073Z,70.77
2023-01-19T17:55:04.361Z,70.62
2023-01-19T17:59:58.214Z,70.35
2023-01-19T18:02:25.127Z,71.21
2023-01-19T18:04:53.481Z,70.58
2023-01-19T18:07:20.643Z,71.43
2023-01-19T18:09:48.519Z,70.40
2023-01-19T18:12:15.793Z,71.37
2023-01-19T18:14:42.863Z,70.70
2023-01-19T18:17:09.699Z,71.28
2023-01-19T18:19:36.610Z,70.86
2023-01-19T18:22:03.755Z,71.05
2023-01-19T18:24:31.079Z,71.14
2023-01-19T18:26:59.522Z,70.76
2023-01-19T18:29:26.610Z,70.79
2023-01-19T18:31:53.689Z,70.80
2023-01-19T18:34:20.615Z,70.25
2023-01-19T18:36:47.568Z,70.07
2023-01-19T18:39:14.531Z,70.56
2023-01-19T18:41:41.667Z,70.43
2023-01-19T18:44:09.846Z,69.74
2023-01-19T18:46:38.252Z,69.41
2023-01-19T18:49:06.353Z,69.26
2023-01-19T18:51:33.380Z,68.51
2023-01-19T18:54:00.304Z,68.04
2023-01-19T18:56:27.377Z,67.43
2023-01-19T18:58:54.303Z,67.21
2023-01-19T19:01:31.546Z,66.73
2023-01-19T19:03:59.900Z,66.56
2023-01-19T19:06:26.922Z,66.46
2023-01-19T19:08:56.659Z,65.91
2023-01-19T19:11:25.357Z,65.96
2023-01-19T19:13:54.231Z,65.12
2023-01-19T19:16:21.670Z,64.47
2023-01-19T19:18:48.676Z,64.19
2023-01-19T19:21:16.498Z,63.67
2023-01-19T19:23:43.686Z,63.62
2023-01-19T19:26:12.438Z,62.58
2023-01-19T19:28:40.897Z,62.65
2023-01-19T19:31:09.782Z,61.94
2023-01-19T19:33:38.238Z,62.10
2023-01-19T19:36:07.021Z,62.14
2023-01-19T19:38:34.445Z,61.90
2023-01-19T19:41:08.384Z,62.41
2023-01-19T19:43:36.629Z,61.31
2023-01-19T19:46:07.249Z,61.91
2023-01-19T19:48:37.565Z,61.86
2023-01-19T19:51:17.521Z,61.72
2023-01-19T19:53:45.488Z,60.91
2023-01-19T19:56:14.695Z,61.48
2023-01-19T19:58:42.947Z,61.87
2023-01-19T20:01:15.246Z,61.37
2023-01-19T20:03:42.809Z,61.26
2023-01-19T20:06:12.588Z,61.94
2023-01-19T20:08:40.222Z,61.91
2023-01-19T20:11:10.309Z,62.21
2023-01-19T20:13:39.050Z,62.48
2023-01-19T20:16:09.140Z,62.15
2023-01-19T20:18:38.123Z,62.32
2023-01-19T20:21:16.830Z,62.68
2023-01-19T20:23:45.697Z,61.72
2023-01-19T20:26:15.990Z,61.62
2023-01-19T20:28:46.794Z,61.82
2023-01-19T20:31:25.980Z,62.02
2023-01-19T20:33:54.918Z,61.88
2023-01-19T20:36:22.124Z,62.53
2023-01-19T20:38:49.080Z,61.75
2023-01-19T20:41:16.059Z,62.73
2023-01-19T20:43:43.210Z,62.15
2023-01-19T20:46:10.405Z,61.85
2023-01-19T20:48:37.389Z,62.48
2023-01-19T20:51:07.425Z,62.56
2023-01-19T20:53:35.437Z,62.80
2023-01-19T20:56:13.843Z,63.04
2023-01-19T20:58:41.686Z,62.39
2023-01-19T21:01:29.334Z,62.89
2023-01-19T21:03:56.352Z,63.18
2023-01-19T21:06:23.233Z,63.06
2023-01-19T21:08:50.230Z,62.59
2023-01-19T21:11:18.543Z,62.70
2023-01-19T21:13:45.484Z,63.42
2023-01-19T21:16:12.551Z,63.13
2023-01-19T21:18:41.434Z,62.98
2023-01-19T21:21:29.042Z,62.62
2023-01-19T21:23:57.537Z,62.68
2023-01-19T21:26:24.481Z,63.24
2023-01-19T21:28:51.369Z,63.09
2023-01-19T21:31:18.496Z,62.69
2023-01-19T21:33:45.433Z,62.70
2023-01-19T21:36:12.403Z,62.12
2023-01-19T21:38:39.587Z,62.80
2023-01-19T21:41:08.623Z,62.79
2023-01-19T21:43:37.240Z,62.89
2023-01-19T21:46:24.695Z,62.73
2023-01-19T21:48:51.589Z,62.23
2023-01-19T21:51:18.445Z,62.61
2023-01-19T21:53:45.365Z,62.34
2023-01-19T21:56:12.298Z,62.49
2023-01-19T21:58:39.156Z,62.32
2023-01-19T22:01:09.454Z,63.01
2023-01-19T22:03:36.374Z,63.04
2023-01-19T22:06:05.703Z,62.99
2023-01-19T22:08:33.024Z,63.16
2023-01-19T22:11:08.023Z,63.04
2023-01-19T22:13:36.547Z,62.78
2023-01-19T22:16:05.897Z,62.72
2023-01-19T22:18:34.612Z,62.27
2023-01-19T22:21:19.817Z,63.64
2023-01-19T22:23:54.847Z,63.13
2023-01-19T22:26:22.539Z,63.87
2023-01-19T22:28:53.939Z,63.78
2023-01-19T22:31:20.980Z,63.34
2023-01-19T22:33:47.990Z,62.98
2023-01-19T22:36:19.767Z,63.13
2023-01-19T22:38:52.024Z,63.13
2023-01-19T22:41:26.596Z,63.95
2023-01-19T22:43:56.501Z,63.27
2023-01-19T22:46:26.815Z,62.75
2023-01-19T22:48:59.673Z,63.31
2023-01-19T22:51:28.916Z,62.93
2023-01-19T22:53:55.828Z,63.40
2023-01-19T22:56:25.626Z,63.18
2023-01-19T22:58:53.113Z,63.16
2023-01-19T23:01:21.475Z,62.97
2023-01-19T23:03:48.855Z,63.20
2023-01-19T23:06:30.397Z,62.80
2023-01-19T23:09:00.040Z,62.97
2023-01-19T23:11:30.174Z,63.36
2023-01-19T23:13:58.582Z,62.89
2023-01-19T23:16:25.829Z,63.34
2023-01-19T23:18:54.871Z,62.86
2023-01-19T23:21:24.489Z,62.89
2023-01-19T23:23:58.970Z,62.85
2023-01-19T23:26:26.734Z,62.38
2023-01-19T23:28:56.320Z,63.46
2023-01-19T23:31:37.315Z,63.66
2023-01-19T23:34:07.330Z,62.90
2023-01-19T23:36:49.400Z,63.56
2023-01-19T23:39:21.489Z,63.14
2023-01-19T23:41:49.476Z,63.82
2023-01-19T23:44:16.826Z,63.97
2023-01-19T23:46:43.804Z,63.64
2023-01-19T23:49:11.269Z,63.93
2023-01-19T23:51:39.908Z,64.03
2023-01-19T23:54:06.977Z,63.70
2023-01-19T23:56:36.840Z,64.10
2023-01-19T23:59:10.922Z,63.81
